Time,TemperatureF,DewpointF,PressureIn,WindDirection,WindDirectionDegrees,WindSpeedMPH,WindSpeedGustMPH,Humidity,HourlyPrecipIn,Conditions,Clouds,dailyrainin,SoftwareType,DateUTC
2013-12-04 00:02:00,54.9,48.7,29.81,NW,315,4.0,8.0,80,0.00,,,0.00,meteohub,2013-12-04 08:02:00,
2013-12-04 00:07:00,54.9,48.7,29.81,NW,315,4.0,8.0,80,0.00,,,0.00,meteohub,2013-12-04 08:07:00,
2013-12-04 00:12:00,54.9,48.7,29.81,North,0,2.0,8.0,80,0.00,,,0.00,meteohub,2013-12-04 08:12:00,
2013-12-04 00:17:00,54.7,48.9,29.81,NW,315,4.0,8.0,81,0.00,,,0.00,meteohub,2013-12-04 08:17:00,
2013-12-04 00:22:00,54.7,48.9,29.81,North,0,8.0,8.0,81,0.00,,,0.00,meteohub,2013-12-04 08:22:00,
2013-12-04 00:27:00,54.7,48.9,29.80,North,0,6.0,10.0,81,0.00,,,0.00,meteohub,2013-12-04 08:27:00,
2013-12-04 00:32:00,54.7,48.6,29.80,NW,315,4.0,10.0,80,0.00,,,0.00,meteohub,2013-12-04 08:32:00,
2013-12-04 00:37:00,54.7,48.0,29.80,NW,315,6.0,10.0,78,0.00,,,0.00,meteohub,2013-12-04 08:37:00,
2013-12-04 00:42:00,54.7,47.7,29.80,NW,315,2.0,7.0,77,0.00,,,0.00,meteohub,2013-12-04 08:42:00,
2013-12-04 00:47:00,54.7,47.7,29.80,NNE,23,3.0,7.0,77,0.00,,,0.00,meteohub,2013-12-04 08:47:00,
2013-12-04 00:52:00,54.5,47.1,29.80,NW,315,4.0,7.0,76,0.00,,,0.00,meteohub,2013-12-04 08:52:00,
2013-12-04 00:57:00,54.5,47.1,29.80,North,0,2.0,6.0,76,0.00,,,0.00,meteohub,2013-12-04 08:57:00,
2013-12-04 01:02:00,54.5,47.1,29.80,North,0,3.0,5.0,76,0.00,,,0.00,meteohub,2013-12-04 09:02:00,
2013-12-04 01:07:00,54.5,46.8,29.80,NW,315,8.0,8.0,75,0.00,,,0.00,meteohub,2013-12-04 09:07:00,
2013-12-04 01:12:00,54.7,46.2,29.80,North,0,4.0,8.0,73,0.00,,,0.00,meteohub,2013-12-04 09:12:00,
2013-12-04 01:17:00,54.7,45.9,29.80,NW,315,4.0,8.0,72,0.00,,,0.00,meteohub,2013-12-04 09:17:00,
2013-12-04 01:22:00,54.5,45.7,29.80,North,0,8.0,8.0,72,0.00,,,0.00,meteohub,2013-12-04 09:22:00,
2013-12-04 01:27:00,54.5,45.0,29.81,NW,315,12.0,12.0,70,0.00,,,0.00,meteohub,2013-12-04 09:27:00,
2013-12-04 01:32:00,54.9,45.0,29.80,WSW,248,6.0,8.0,69,0.00,,,0.00,meteohub,2013-12-04 09:32:00,
2013-12-04 01:37:00,54.9,45.0,29.81,NW,315,6.0,12.0,69,0.00,,,0.00,meteohub,2013-12-04 09:37:00,
2013-12-04 01:42:00,54.9,45.0,29.81,North,0,8.0,12.0,69,0.00,,,0.00,meteohub,2013-12-04 09:42:00,
2013-12-04 01:47:00,54.7,45.1,29.81,NW,315,8.0,11.0,70,0.00,,,0.00,meteohub,2013-12-04 09:47:00,
2013-12-04 01:52:00,54.7,45.1,29.81,NW,315,4.0,11.0,70,0.00,,,0.00,meteohub,2013-12-04 09:52:00,
2013-12-04 01:57:00,54.7,45.1,29.81,NW,315,8.0,11.0,70,0.00,,,0.00,meteohub,2013-12-04 09:57:00,
2013-12-04 02:02:00,54.5,45.0,29.80,NW,315,4.0,11.0,70,0.00,,,0.00,meteohub,2013-12-04 10:02:00,
2013-12-04 02:07:00,54.3,44.8,29.80,NW,315,4.0,11.0,70,0.00,,,0.00,meteohub,2013-12-04 10:07:00,
2013-12-04 02:12:00,54.1,44.6,29.80,North,0,7.0,10.0,70,0.00,,,0.00,meteohub,2013-12-04 10:12:00,
2013-12-04 02:17:00,54.1,44.6,29.80,West,270,4.0,10.0,70,0.00,,,0.00,meteohub,2013-12-04 10:17:00,
2013-12-04 02:22:00,54.1,44.6,29.80,NW,315,3.0,9.0,70,0.00,,,0.00,meteohub,2013-12-04 10:22:00,
2013-12-04 02:27:00,54.1,45.0,29.80,NW,315,4.0,8.0,71,0.00,,,0.00,meteohub,2013-12-04 10:27:00,
2013-12-04 02:32:00,54.0,44.8,29.81,West,270,5.0,8.0,71,0.00,,,0.00,meteohub,2013-12-04 10:32:00,
2013-12-04 02:37:00,53.8,45.0,29.81,West,270,4.0,5.0,72,0.00,,,0.00,meteohub,2013-12-04 10:37:00,
2013-12-04 02:42:00,53.8,45.0,29.81,NW,315,2.0,5.0,72,0.00,,,0.00,meteohub,2013-12-04 10:42:00,
2013-12-04 02:47:00,53.4,45.0,29.80,NW,315,4.0,5.0,73,0.00,,,0.00,meteohub,2013-12-04 10:47:00,
2013-12-04 02:52:00,53.4,45.3,29.80,NW,315,4.0,8.0,74,0.00,,,0.00,meteohub,2013-12-04 10:52:00,
2013-12-04 02:57:00,53.2,45.1,29.80,NW,315,3.0,8.0,74,0.00,,,0.00,meteohub,2013-12-04 10:57:00,
2013-12-04 03:02:00,53.1,45.3,29.79,West,270,3.0,8.0,75,0.00,,,0.00,meteohub,2013-12-04 11:02:00,
2013-12-04 03:07:00,52.7,45.7,29.79,West,270,2.0,5.0,77,0.00,,,0.00,meteohub,2013-12-04 11:07:00,
2013-12-04 03:12:00,52.5,45.9,29.79,WNW,293,4.0,4.0,78,0.00,,,0.00,meteohub,2013-12-04 11:12:00,
2013-12-04 03:17:00,52.3,45.7,29.79,NW,315,4.0,4.0,78,0.00,,,0.00,meteohub,2013-12-04 11:17:00,
2013-12-04 03:22:00,52.3,45.7,29.79,NW,315,2.0,4.0,78,0.00,,,0.00,meteohub,2013-12-04 11:22:00,
2013-12-04 03:27:00,52.0,45.3,29.79,NW,315,1.0,4.0,78,0.00,,,0.00,meteohub,2013-12-04 11:27:00,
2013-12-04 03:32:00,51.3,45.3,29.80,NW,315,2.0,4.0,80,0.00,,,0.00,meteohub,2013-12-04 11:32:00,
2013-12-04 03:37:00,51.1,45.9,29.80,NW,315,2.0,3.0,82,0.00,,,0.00,meteohub,2013-12-04 11:37:00,
2013-12-04 03:42:00,50.5,45.5,29.81,NE,45,4.0,4.0,83,0.00,,,0.00,meteohub,2013-12-04 11:42:00,
2013-12-04 03:47:00,50.4,45.1,29.80,North,0,4.0,4.0,82,0.00,,,0.00,meteohub,2013-12-04 11:47:00,
2013-12-04 03:52:00,50.0,44.4,29.81,NE,45,4.0,4.0,81,0.00,,,0.00,meteohub,2013-12-04 11:52:00,
2013-12-04 03:57:00,49.6,43.0,29.81,NE,45,1.0,4.0,78,0.00,,,0.00,meteohub,2013-12-04 11:57:00,
2013-12-04 04:02:00,49.3,42.4,29.81,NE,45,2.0,4.0,77,0.00,,,0.00,meteohub,2013-12-04 12:02:00,
2013-12-04 04:07:00,48.6,41.7,29.81,NE,45,1.0,4.0,77,0.00,,,0.00,meteohub,2013-12-04 12:07:00,
2013-12-04 04:12:00,48.2,41.7,29.82,NE,45,0.0,3.0,78,0.00,,,0.00,meteohub,2013-12-04 12:12:00,
2013-12-04 04:17:00,47.7,41.5,29.82,NE,45,1.0,2.0,79,0.00,,,0.00,meteohub,2013-12-04 12:17:00,
2013-12-04 04:22:00,47.1,41.4,29.82,NE,45,1.0,2.0,80,0.00,,,0.00,meteohub,2013-12-04 12:22:00,
2013-12-04 04:27:00,46.8,41.5,29.82,NE,45,2.0,2.0,82,0.00,,,0.00,meteohub,2013-12-04 12:27:00,
2013-12-04 04:32:00,46.8,41.2,29.82,NE,45,0.0,2.0,81,0.00,,,0.00,meteohub,2013-12-04 12:32:00,
2013-12-04 04:37:00,46.4,41.2,29.82,NE,45,2.0,2.0,82,0.00,,,0.00,meteohub,2013-12-04 12:37:00,
2013-12-04 04:42:00,46.0,40.8,29.82,NE,45,0.0,2.0,82,0.00,,,0.00,meteohub,2013-12-04 12:42:00,
2013-12-04 04:47:00,46.2,41.0,29.82,NE,45,1.0,2.0,82,0.00,,,0.00,meteohub,2013-12-04 12:47:00,
2013-12-04 04:52:00,46.0,40.5,29.82,NE,45,1.0,2.0,81,0.00,,,0.00,meteohub,2013-12-04 12:52:00,
2013-12-04 04:57:00,45.9,40.3,29.82,NE,45,0.0,2.0,81,0.00,,,0.00,meteohub,2013-12-04 12:57:00,
2013-12-04 05:02:00,45.5,40.3,29.83,NE,45,0.0,2.0,82,0.00,,,0.00,meteohub,2013-12-04 13:02:00,
2013-12-04 05:07:00,45.5,40.6,29.83,NE,45,0.0,2.0,83,0.00,,,0.00,meteohub,2013-12-04 13:07:00,
2013-12-04 05:13:00,45.3,40.5,29.83,NE,45,2.0,2.0,83,0.00,,,0.00,meteohub,2013-12-04 13:13:00,
2013-12-04 05:18:00,45.0,40.1,29.84,NE,45,0.0,2.0,83,0.00,,,0.00,meteohub,2013-12-04 13:18:00,
2013-12-04 05:23:00,45.0,40.1,29.84,NE,45,1.0,2.0,83,0.00,,,0.00,meteohub,2013-12-04 13:23:00,
2013-12-04 05:28:00,45.0,40.5,29.85,NE,45,0.0,2.0,84,0.00,,,0.00,meteohub,2013-12-04 13:28:00,
2013-12-04 05:33:00,45.0,40.5,29.85,NE,45,1.0,2.0,84,0.00,,,0.00,meteohub,2013-12-04 13:33:00,
2013-12-04 05:38:00,45.0,40.1,29.85,NE,45,0.0,2.0,83,0.00,,,0.00,meteohub,2013-12-04 13:38:00,
2013-12-04 05:43:00,44.8,40.3,29.86,NE,45,2.0,2.0,84,0.00,,,0.00,meteohub,2013-12-04 13:43:00,
2013-12-04 05:48:00,44.8,40.5,29.86,NE,45,2.0,2.0,85,0.00,,,0.00,meteohub,2013-12-04 13:48:00,
2013-12-04 05:53:00,45.0,40.6,29.86,NE,45,3.0,3.0,85,0.00,,,0.00,meteohub,2013-12-04 13:53:00,
2013-12-04 05:58:00,45.1,40.6,29.87,NE,45,3.0,3.0,84,0.00,,,0.00,meteohub,2013-12-04 13:58:00,
2013-12-04 06:03:00,45.1,40.6,29.87,North,0,4.0,4.0,84,0.00,,,0.00,meteohub,2013-12-04 14:03:00,
2013-12-04 06:08:00,45.0,40.5,29.87,North,0,2.0,4.0,84,0.00,,,0.00,meteohub,2013-12-04 14:08:00,
2013-12-04 06:13:00,45.0,40.6,29.88,North,0,3.0,4.0,85,0.00,,,0.00,meteohub,2013-12-04 14:13:00,
2013-12-04 06:18:00,44.8,40.8,29.89,North,0,2.0,4.0,86,0.00,,,0.00,meteohub,2013-12-04 14:18:00,
2013-12-04 06:23:00,44.8,40.8,29.89,North,0,1.0,3.0,86,0.00,,,0.00,meteohub,2013-12-04 14:23:00,
2013-12-04 06:28:00,44.4,40.5,29.90,North,0,1.0,3.0,86,0.00,,,0.00,meteohub,2013-12-04 14:28:00,
2013-12-04 06:33:00,44.1,40.8,29.90,North,0,2.0,2.0,88,0.00,,,0.00,meteohub,2013-12-04 14:33:00,
2013-12-04 06:38:00,43.9,40.8,29.91,North,0,2.0,2.0,89,0.00,,,0.00,meteohub,2013-12-04 14:38:00,
2013-12-04 06:43:00,43.7,40.6,29.91,North,0,1.0,2.0,89,0.00,,,0.00,meteohub,2013-12-04 14:43:00,
2013-12-04 06:48:00,43.7,41.2,29.91,North,0,2.0,2.0,91,0.00,,,0.00,meteohub,2013-12-04 14:48:00,
2013-12-04 06:53:00,43.9,41.7,29.91,North,0,0.0,2.0,92,0.00,,,0.00,meteohub,2013-12-04 14:53:00,
2013-12-04 06:58:00,43.9,41.7,29.91,NNE,23,3.0,3.0,92,0.00,,,0.00,meteohub,2013-12-04 14:58:00,
2013-12-04 07:03:00,44.4,42.3,29.92,NE,45,2.0,3.0,92,0.00,,,0.00,meteohub,2013-12-04 15:03:00,
2013-12-04 07:08:00,45.0,41.4,29.92,East,90,3.0,3.0,87,0.00,,,0.00,meteohub,2013-12-04 15:08:00,
2013-12-04 07:13:00,45.7,40.8,29.92,NE,45,4.0,4.0,83,0.00,,,0.00,meteohub,2013-12-04 15:13:00,
2013-12-04 07:18:00,46.0,39.6,29.92,East,90,3.0,4.0,78,0.00,,,0.00,meteohub,2013-12-04 15:18:00,
2013-12-04 07:23:00,46.6,38.7,29.92,NE,45,3.0,4.0,74,0.00,,,0.00,meteohub,2013-12-04 15:23:00,
2013-12-04 07:28:00,47.1,38.8,29.92,NE,45,2.0,4.0,73,0.00,,,0.00,meteohub,2013-12-04 15:28:00,
2013-12-04 07:33:00,47.5,38.5,29.92,NE,45,2.0,4.0,71,0.00,,,0.00,meteohub,2013-12-04 15:33:00,
2013-12-04 07:39:00,47.7,38.3,29.92,NE,45,2.0,4.0,70,0.00,,,0.00,meteohub,2013-12-04 15:39:00,
2013-12-04 07:44:00,48.2,38.5,29.93,NE,45,2.0,3.0,69,0.00,,,0.00,meteohub,2013-12-04 15:44:00,
2013-12-04 07:49:00,48.6,36.9,29.93,North,0,3.0,3.0,64,0.00,,,0.00,meteohub,2013-12-04 15:49:00,
2013-12-04 07:54:00,49.3,35.6,29.93,North,0,2.0,3.0,59,0.00,,,0.00,meteohub,2013-12-04 15:54:00,
2013-12-04 07:59:00,50.0,34.0,29.93,NE,45,2.0,4.0,54,0.00,,,0.00,meteohub,2013-12-04 15:59:00,
2013-12-04 08:04:00,50.5,33.1,29.93,NE,45,4.0,4.0,51,0.00,,,0.00,meteohub,2013-12-04 16:04:00,
2013-12-04 08:09:00,51.1,32.0,29.94,NE,45,4.0,4.0,48,0.00,,,0.00,meteohub,2013-12-04 16:09:00,
2013-12-04 08:14:00,52.2,34.2,29.94,NE,45,2.0,4.0,50,0.00,,,0.00,meteohub,2013-12-04 16:14:00,
2013-12-04 08:19:00,52.7,32.0,29.94,North,0,3.0,4.0,45,0.00,,,0.00,meteohub,2013-12-04 16:19:00,
2013-12-04 08:24:00,53.2,30.7,29.94,NE,45,2.0,4.0,42,0.00,,,0.00,meteohub,2013-12-04 16:24:00,
2013-12-04 08:29:00,53.6,29.8,29.94,North,0,4.0,4.0,40,0.00,,,0.00,meteohub,2013-12-04 16:29:00,
2013-12-04 08:34:00,54.0,30.2,29.95,East,90,2.0,4.0,40,0.00,,,0.00,meteohub,2013-12-04 16:34:00,
2013-12-04 08:39:00,54.5,28.0,29.94,East,90,4.0,4.0,36,0.00,,,0.00,meteohub,2013-12-04 16:39:00,
2013-12-04 08:44:00,54.7,27.5,29.95,ENE,68,3.0,4.0,35,0.00,,,0.00,meteohub,2013-12-04 16:44:00,
2013-12-04 08:49:00,55.0,26.4,29.95,NE,45,3.0,5.0,33,0.00,,,0.00,meteohub,2013-12-04 16:49:00,
2013-12-04 08:54:00,55.6,27.0,29.95,East,90,2.0,5.0,33,0.00,,,0.00,meteohub,2013-12-04 16:54:00,
2013-12-04 08:59:00,56.7,27.9,29.95,NE,45,3.0,5.0,33,0.00,,,0.00,meteohub,2013-12-04 16:59:00,
2013-12-04 09:04:00,57.7,27.3,29.95,North,0,3.0,5.0,31,0.00,,,0.00,meteohub,2013-12-04 17:04:00,
2013-12-04 09:09:00,58.8,27.5,29.95,East,90,4.0,5.0,30,0.00,,,0.00,meteohub,2013-12-04 17:09:00,
2013-12-04 09:15:00,59.5,28.0,29.95,North,0,4.0,4.0,30,0.00,,,0.00,meteohub,2013-12-04 17:15:00,
2013-12-04 09:20:00,59.7,28.9,29.95,East,90,4.0,4.0,31,0.00,,,0.00,meteohub,2013-12-04 17:20:00,
2013-12-04 09:25:00,59.9,33.6,29.95,NE,45,4.0,4.0,37,0.00,,,0.00,meteohub,2013-12-04 17:25:00,
2013-12-04 09:30:00,61.0,33.8,29.96,NE,45,5.0,5.0,36,0.00,,,0.00,meteohub,2013-12-04 17:30:00,
2013-12-04 09:35:00,60.3,35.2,29.96,ESE,113,3.0,5.0,39,0.00,,,0.00,meteohub,2013-12-04 17:35:00,
2013-12-04 09:40:00,60.3,35.8,29.96,East,90,1.0,5.0,40,0.00,,,0.00,meteohub,2013-12-04 17:40:00,
2013-12-04 09:45:00,61.0,35.8,29.96,South,180,4.0,5.0,39,0.00,,,0.00,meteohub,2013-12-04 17:45:00,
2013-12-04 09:50:00,61.3,35.6,29.96,East,90,4.0,5.0,38,0.00,,,0.00,meteohub,2013-12-04 17:50:00,
2013-12-04 09:55:00,61.3,34.9,29.96,South,180,2.0,4.0,37,0.00,,,0.00,meteohub,2013-12-04 17:55:00,
2013-12-04 10:00:00,61.3,37.4,29.96,East,90,4.0,5.0,41,0.00,,,0.00,meteohub,2013-12-04 18:00:00,
2013-12-04 10:05:00,61.2,41.9,29.96,ENE,68,5.0,5.0,49,0.00,,,0.00,meteohub,2013-12-04 18:05:00,
2013-12-04 10:10:00,61.2,41.4,29.96,NE,45,2.0,5.0,48,0.00,,,0.00,meteohub,2013-12-04 18:10:00,
2013-12-04 10:15:00,61.9,41.9,29.96,SSE,158,2.0,5.0,48,0.00,,,0.00,meteohub,2013-12-04 18:15:00,
2013-12-04 10:20:00,61.7,41.2,29.96,East,90,2.0,5.0,47,0.00,,,0.00,meteohub,2013-12-04 18:20:00,
2013-12-04 10:25:00,61.5,41.7,29.96,East,90,2.0,4.0,48,0.00,,,0.00,meteohub,2013-12-04 18:25:00,
2013-12-04 10:30:00,61.7,42.3,29.96,NNE,23,3.0,4.0,49,0.00,,,0.00,meteohub,2013-12-04 18:30:00,
2013-12-04 10:35:00,61.3,42.1,29.95,East,90,2.0,4.0,49,0.00,,,0.00,meteohub,2013-12-04 18:35:00,
2013-12-04 10:40:00,61.9,42.4,29.95,East,90,2.0,4.0,49,0.00,,,0.00,meteohub,2013-12-04 18:40:00,
2013-12-04 10:45:00,62.8,42.3,29.95,South,180,2.0,4.0,47,0.00,,,0.00,meteohub,2013-12-04 18:45:00,
2013-12-04 10:50:00,63.3,42.3,29.95,NW,315,1.0,4.0,46,0.00,,,0.00,meteohub,2013-12-04 18:50:00,
2013-12-04 10:55:00,63.9,42.6,29.95,NNE,23,4.0,4.0,46,0.00,,,0.00,meteohub,2013-12-04 18:55:00,
2013-12-04 11:00:00,63.5,42.3,29.95,NE,45,2.0,4.0,46,0.00,,,0.00,meteohub,2013-12-04 19:00:00,
2013-12-04 11:05:00,64.0,42.8,29.95,North,0,2.0,4.0,46,0.00,,,0.00,meteohub,2013-12-04 19:05:00,
2013-12-04 11:10:00,63.9,41.0,29.94,West,270,3.0,4.0,43,0.00,,,0.00,meteohub,2013-12-04 19:10:00,
2013-12-04 11:15:00,63.0,40.6,29.94,NW,315,4.0,4.0,44,0.00,,,0.00,meteohub,2013-12-04 19:15:00,
2013-12-04 11:20:00,62.8,40.5,29.94,South,180,6.0,6.0,44,0.00,,,0.00,meteohub,2013-12-04 19:20:00,
2013-12-04 11:25:00,63.0,41.4,29.94,SE,135,2.0,5.0,45,0.00,,,0.00,meteohub,2013-12-04 19:25:00,
2013-12-04 11:30:00,63.9,41.5,29.94,South,180,9.0,9.0,44,0.00,,,0.00,meteohub,2013-12-04 19:30:00,
2013-12-04 11:35:00,64.6,40.3,29.94,NW,315,6.0,6.0,41,0.00,,,0.00,meteohub,2013-12-04 19:35:00,
2013-12-04 11:40:00,64.6,40.3,29.94,NW,315,4.0,9.0,41,0.00,,,0.00,meteohub,2013-12-04 19:40:00,
2013-12-04 11:45:00,64.6,40.3,29.93,NE,45,3.0,9.0,41,0.00,,,0.00,meteohub,2013-12-04 19:45:00,
2013-12-04 11:50:00,63.3,39.2,29.94,WNW,293,11.0,11.0,41,0.00,,,0.00,meteohub,2013-12-04 19:50:00,
2013-12-04 11:55:00,62.8,39.9,29.93,NW,315,7.0,11.0,43,0.00,,,0.00,meteohub,2013-12-04 19:55:00,
2013-12-04 12:00:00,63.1,39.0,29.93,West,270,11.0,11.0,41,0.00,,,0.00,meteohub,2013-12-04 20:00:00,
2013-12-04 12:05:00,62.8,41.2,29.92,West,270,8.0,11.0,45,0.00,,,0.00,meteohub,2013-12-04 20:05:00,
2013-12-04 12:10:00,62.8,39.9,29.92,WNW,293,8.0,11.0,43,0.00,,,0.00,meteohub,2013-12-04 20:10:00,
2013-12-04 12:15:00,63.1,39.0,29.92,NW,315,5.0,11.0,41,0.00,,,0.00,meteohub,2013-12-04 20:15:00,
2013-12-04 12:20:00,63.3,38.7,29.92,WNW,293,11.0,11.0,40,0.00,,,0.00,meteohub,2013-12-04 20:20:00,
2013-12-04 12:25:00,62.8,38.1,29.91,NW,315,6.0,12.0,40,0.00,,,0.00,meteohub,2013-12-04 20:25:00,
2013-12-04 12:30:00,62.8,36.9,29.91,West,270,7.0,12.0,38,0.00,,,0.00,meteohub,2013-12-04 20:30:00,
2013-12-04 12:35:00,62.6,35.2,29.91,NW,315,10.0,12.0,36,0.00,,,0.00,meteohub,2013-12-04 20:35:00,
2013-12-04 12:40:00,62.6,37.2,29.91,West,270,4.0,10.0,39,0.00,,,0.00,meteohub,2013-12-04 20:40:00,
2013-12-04 12:45:00,62.8,37.4,29.91,NW,315,11.0,11.0,39,0.00,,,0.00,meteohub,2013-12-04 20:45:00,
2013-12-04 12:50:00,62.4,36.5,29.91,NW,315,11.0,11.0,38,0.00,,,0.00,meteohub,2013-12-04 20:50:00,
2013-12-04 12:55:00,62.2,37.0,29.91,NW,315,9.0,11.0,39,0.00,,,0.00,meteohub,2013-12-04 20:55:00,
2013-12-04 13:00:00,61.9,34.7,29.91,West,270,4.0,11.0,36,0.00,,,0.00,meteohub,2013-12-04 21:00:00,
2013-12-04 13:05:00,61.9,36.7,29.91,NW,315,11.0,11.0,39,0.00,,,0.00,meteohub,2013-12-04 21:05:00,
2013-12-04 13:10:00,61.7,35.2,29.91,NW,315,8.0,11.0,37,0.00,,,0.00,meteohub,2013-12-04 21:10:00,
2013-12-04 13:15:00,61.5,35.1,29.91,NW,315,8.0,12.0,37,0.00,,,0.00,meteohub,2013-12-04 21:15:00,
2013-12-04 13:20:00,61.5,32.2,29.91,West,270,8.0,12.0,33,0.00,,,0.00,meteohub,2013-12-04 21:20:00,
2013-12-04 13:25:00,61.7,31.5,29.91,West,270,6.0,12.0,32,0.00,,,0.00,meteohub,2013-12-04 21:25:00,
2013-12-04 13:30:00,61.7,31.5,29.91,North,0,10.0,12.0,32,0.00,,,0.00,meteohub,2013-12-04 21:30:00,
2013-12-04 13:35:00,61.3,32.0,29.90,NW,315,9.0,12.0,33,0.00,,,0.00,meteohub,2013-12-04 21:35:00,
2013-12-04 13:40:00,61.5,32.2,29.91,WNW,293,9.0,12.0,33,0.00,,,0.00,meteohub,2013-12-04 21:40:00,
2013-12-04 13:45:00,61.7,34.5,29.91,NW,315,9.0,12.0,36,0.00,,,0.00,meteohub,2013-12-04 21:45:00,
2013-12-04 13:50:00,61.5,34.3,29.91,NW,315,9.0,11.0,36,0.00,,,0.00,meteohub,2013-12-04 21:50:00,
2013-12-04 13:55:00,61.7,35.2,29.91,NW,315,9.0,11.0,37,0.00,,,0.00,meteohub,2013-12-04 21:55:00,
2013-12-04 14:00:00,61.5,34.3,29.91,NW,315,11.0,13.0,36,0.00,,,0.00,meteohub,2013-12-04 22:00:00,
2013-12-04 14:05:00,61.9,35.2,29.91,NW,315,7.0,13.0,37,0.00,,,0.00,meteohub,2013-12-04 22:05:00,
2013-12-04 14:10:00,62.2,34.9,29.91,NW,315,11.0,13.0,36,0.00,,,0.00,meteohub,2013-12-04 22:10:00,
2013-12-04 14:15:00,62.1,35.4,29.91,WNW,293,8.0,12.0,37,0.00,,,0.00,meteohub,2013-12-04 22:15:00,
2013-12-04 14:20:00,62.4,35.8,29.91,WNW,293,7.0,12.0,37,0.00,,,0.00,meteohub,2013-12-04 22:20:00,
2013-12-04 14:25:00,62.2,35.6,29.91,West,270,8.0,12.0,37,0.00,,,0.00,meteohub,2013-12-04 22:25:00,
2013-12-04 14:30:00,62.8,36.9,29.91,WNW,293,8.0,13.0,38,0.00,,,0.00,meteohub,2013-12-04 22:30:00,
2013-12-04 14:35:00,62.8,36.9,29.91,NW,315,9.0,13.0,38,0.00,,,0.00,meteohub,2013-12-04 22:35:00,
2013-12-04 14:41:00,62.2,34.9,29.91,WNW,293,9.0,10.0,36,0.00,,,0.00,meteohub,2013-12-04 22:41:00,
2013-12-04 14:46:00,62.1,35.4,29.91,NW,315,8.0,11.0,37,0.00,,,0.00,meteohub,2013-12-04 22:46:00,
2013-12-04 14:51:00,61.7,35.8,29.91,NW,315,11.0,14.0,38,0.00,,,0.00,meteohub,2013-12-04 22:51:00,
2013-12-04 14:56:00,61.3,35.6,29.91,NW,315,12.0,14.0,38,0.00,,,0.00,meteohub,2013-12-04 22:56:00,
2013-12-04 15:01:00,61.2,35.4,29.91,West,270,12.0,14.0,38,0.00,,,0.00,meteohub,2013-12-04 23:01:00,
2013-12-04 15:06:00,60.6,34.2,29.91,West,270,11.0,14.0,37,0.00,,,0.00,meteohub,2013-12-04 23:06:00,
2013-12-04 15:11:00,60.6,34.2,29.91,NW,315,11.0,14.0,37,0.00,,,0.00,meteohub,2013-12-04 23:11:00,
2013-12-04 15:16:00,60.6,35.6,29.91,West,270,12.0,14.0,39,0.00,,,0.00,meteohub,2013-12-04 23:16:00,
2013-12-04 15:21:00,60.4,36.0,29.91,NW,315,10.0,13.0,40,0.00,,,0.00,meteohub,2013-12-04 23:21:00,
2013-12-04 15:26:00,60.8,35.6,29.91,NW,315,7.0,13.0,39,0.00,,,0.00,meteohub,2013-12-04 23:26:00,
2013-12-04 15:31:00,60.6,36.1,29.91,NW,315,11.0,13.0,40,0.00,,,0.00,meteohub,2013-12-04 23:31:00,
2013-12-04 15:36:00,60.3,36.5,29.91,West,270,10.0,12.0,41,0.00,,,0.00,meteohub,2013-12-04 23:36:00,
2013-12-04 15:41:00,60.3,36.5,29.91,NW,315,8.0,11.0,41,0.00,,,0.00,meteohub,2013-12-04 23:41:00,
2013-12-04 15:46:00,60.1,35.6,29.91,NW,315,6.0,11.0,40,0.00,,,0.00,meteohub,2013-12-04 23:46:00,
2013-12-04 15:51:00,60.1,35.1,29.91,West,270,11.0,11.0,39,0.00,,,0.00,meteohub,2013-12-04 23:51:00,
2013-12-04 15:56:00,59.7,36.0,29.91,NW,315,7.0,11.0,41,0.00,,,0.00,meteohub,2013-12-04 23:56:00,
2013-12-04 16:01:00,59.5,35.8,29.91,NW,315,7.0,11.0,41,0.00,,,0.00,meteohub,2013-12-05 00:01:00,
2013-12-04 16:06:00,59.4,36.3,29.91,NW,315,8.0,11.0,42,0.00,,,0.00,meteohub,2013-12-05 00:06:00,
2013-12-04 16:11:00,59.4,35.1,29.91,West,270,8.0,11.0,40,0.00,,,0.00,meteohub,2013-12-05 00:11:00,
2013-12-04 16:16:00,59.0,34.7,29.92,WNW,293,9.0,11.0,40,0.00,,,0.00,meteohub,2013-12-05 00:16:00,
2013-12-04 16:21:00,58.8,35.2,29.92,West,270,10.0,11.0,41,0.00,,,0.00,meteohub,2013-12-05 00:21:00,
2013-12-04 16:26:00,58.5,34.9,29.92,NW,315,7.0,11.0,41,0.00,,,0.00,meteohub,2013-12-05 00:26:00,
2013-12-04 16:31:00,58.1,35.1,29.92,NW,315,4.0,11.0,42,0.00,,,0.00,meteohub,2013-12-05 00:31:00,
2013-12-04 16:36:00,57.6,35.2,29.92,NW,315,4.0,11.0,43,0.00,,,0.00,meteohub,2013-12-05 00:36:00,
2013-12-04 16:41:00,57.0,36.0,29.92,NW,315,4.0,11.0,45,0.00,,,0.00,meteohub,2013-12-05 00:41:00,
2013-12-04 16:46:00,56.8,35.8,29.92,NW,315,6.0,9.0,45,0.00,,,0.00,meteohub,2013-12-05 00:46:00,
2013-12-04 16:51:00,56.7,35.1,29.92,NW,315,5.0,8.0,44,0.00,,,0.00,meteohub,2013-12-05 00:51:00,
2013-12-04 16:56:00,56.5,35.4,29.92,NW,315,4.0,8.0,45,0.00,,,0.00,meteohub,2013-12-05 00:56:00,
2013-12-04 17:01:00,56.1,35.6,29.92,NW,315,3.0,6.0,46,0.00,,,0.00,meteohub,2013-12-05 01:01:00,
2013-12-04 17:06:00,55.9,35.4,29.92,NW,315,2.0,6.0,46,0.00,,,0.00,meteohub,2013-12-05 01:06:00,
2013-12-04 17:11:00,55.6,35.6,29.93,NW,315,2.0,5.0,47,0.00,,,0.00,meteohub,2013-12-05 01:11:00,
2013-12-04 17:16:00,54.9,35.6,29.93,NW,315,0.0,5.0,48,0.00,,,0.00,meteohub,2013-12-05 01:16:00,
2013-12-04 17:21:00,54.7,36.0,29.93,NW,315,0.0,3.0,49,0.00,,,0.00,meteohub,2013-12-05 01:21:00,
2013-12-04 17:26:00,54.0,35.2,29.93,NW,315,1.0,2.0,49,0.00,,,0.00,meteohub,2013-12-05 01:26:00,
2013-12-04 17:31:00,53.2,35.6,29.93,NW,315,1.0,2.0,51,0.00,,,0.00,meteohub,2013-12-05 01:31:00,
2013-12-04 17:36:00,52.7,36.0,29.94,NW,315,1.0,2.0,53,0.00,,,0.00,meteohub,2013-12-05 01:36:00,
2013-12-04 17:41:00,52.2,36.0,29.94,NW,315,2.0,2.0,54,0.00,,,0.00,meteohub,2013-12-05 01:41:00,
2013-12-04 17:46:00,52.0,36.3,29.93,NW,315,0.0,2.0,55,0.00,,,0.00,meteohub,2013-12-05 01:46:00,
2013-12-04 17:51:00,51.4,35.8,29.94,NW,315,0.0,2.0,55,0.00,,,0.00,meteohub,2013-12-05 01:51:00,
2013-12-04 17:56:00,50.7,36.0,29.94,NW,315,1.0,2.0,57,0.00,,,0.00,meteohub,2013-12-05 01:56:00,
2013-12-04 18:01:00,50.4,36.1,29.94,NW,315,0.0,2.0,58,0.00,,,0.00,meteohub,2013-12-05 02:01:00,
2013-12-04 18:06:00,50.0,36.3,29.95,NW,315,0.0,1.0,59,0.00,,,0.00,meteohub,2013-12-05 02:06:00,
2013-12-04 18:11:00,49.6,36.7,29.95,NW,315,0.0,1.0,61,0.00,,,0.00,meteohub,2013-12-05 02:11:00,
2013-12-04 18:16:00,49.3,36.3,29.95,NW,315,0.0,0.0,61,0.00,,,0.00,meteohub,2013-12-05 02:16:00,
2013-12-04 18:21:00,49.3,36.9,29.95,NW,315,0.0,0.0,62,0.00,,,0.00,meteohub,2013-12-05 02:21:00,
2013-12-04 18:26:00,48.9,36.5,29.94,NW,315,0.0,0.0,62,0.00,,,0.00,meteohub,2013-12-05 02:26:00,
2013-12-04 18:31:00,48.4,36.3,29.95,NW,315,0.0,0.0,63,0.00,,,0.00,meteohub,2013-12-05 02:31:00,
2013-12-04 18:36:00,48.0,36.5,29.95,NW,315,0.0,0.0,64,0.00,,,0.00,meteohub,2013-12-05 02:36:00,
2013-12-04 18:41:00,47.8,37.0,29.95,NW,315,0.0,0.0,66,0.00,,,0.00,meteohub,2013-12-05 02:41:00,
2013-12-04 18:46:00,48.2,38.1,29.95,NW,315,0.0,0.0,68,0.00,,,0.00,meteohub,2013-12-05 02:46:00,
2013-12-04 18:51:00,48.7,39.0,29.95,NW,315,1.0,0.0,69,0.00,,,0.00,meteohub,2013-12-05 02:51:00,
2013-12-04 18:56:00,48.9,38.8,29.95,NW,315,0.0,1.0,68,0.00,,,0.00,meteohub,2013-12-05 02:56:00,
2013-12-04 19:01:00,48.7,38.3,29.95,NW,315,0.0,1.0,67,0.00,,,0.00,meteohub,2013-12-05 03:01:00,
2013-12-04 19:06:00,48.7,39.0,29.95,NW,315,0.0,1.0,69,0.00,,,0.00,meteohub,2013-12-05 03:06:00,
2013-12-04 19:11:00,48.9,39.2,29.95,NW,315,1.0,0.0,69,0.00,,,0.00,meteohub,2013-12-05 03:11:00,
2013-12-04 19:16:00,48.9,39.2,29.95,NW,315,1.0,2.0,69,0.00,,,0.00,meteohub,2013-12-05 03:16:00,
2013-12-04 19:21:00,48.7,39.0,29.95,NW,315,0.0,2.0,69,0.00,,,0.00,meteohub,2013-12-05 03:21:00,
2013-12-04 19:26:00,48.0,38.3,29.96,NW,315,0.0,2.0,69,0.00,,,0.00,meteohub,2013-12-05 03:26:00,
2013-12-04 19:31:00,47.3,38.3,29.96,NW,315,0.0,2.0,71,0.00,,,0.00,meteohub,2013-12-05 03:31:00,
2013-12-04 19:36:00,47.8,39.2,29.96,NW,315,1.0,0.0,72,0.00,,,0.00,meteohub,2013-12-05 03:36:00,
2013-12-04 19:41:00,48.7,40.8,29.96,NW,315,2.0,2.0,74,0.00,,,0.00,meteohub,2013-12-05 03:41:00,
2013-12-04 19:46:00,49.5,40.8,29.96,South,180,2.0,2.0,72,0.00,,,0.00,meteohub,2013-12-05 03:46:00,
2013-12-04 19:51:00,49.8,40.5,29.96,South,180,2.0,2.0,70,0.00,,,0.00,meteohub,2013-12-05 03:51:00,
2013-12-04 19:56:00,49.8,40.5,29.96,South,180,1.0,2.0,70,0.00,,,0.00,meteohub,2013-12-05 03:56:00,
2013-12-04 20:01:00,49.5,40.1,29.96,South,180,0.0,2.0,70,0.00,,,0.00,meteohub,2013-12-05 04:01:00,
2013-12-04 20:06:00,49.1,39.7,29.96,South,180,0.0,2.0,70,0.00,,,0.00,meteohub,2013-12-05 04:06:00,
2013-12-04 20:11:00,48.9,39.6,29.96,South,180,0.0,1.0,70,0.00,,,0.00,meteohub,2013-12-05 04:11:00,
2013-12-04 20:16:00,48.6,39.6,29.96,South,180,0.0,0.0,71,0.00,,,0.00,meteohub,2013-12-05 04:16:00,
2013-12-04 20:21:00,48.7,40.1,29.97,South,180,0.0,0.0,72,0.00,,,0.00,meteohub,2013-12-05 04:21:00,
2013-12-04 20:26:00,48.7,39.7,29.97,South,180,0.0,0.0,71,0.00,,,0.00,meteohub,2013-12-05 04:26:00,
2013-12-04 20:31:00,48.9,39.9,29.97,South,180,0.0,0.0,71,0.00,,,0.00,meteohub,2013-12-05 04:31:00,
2013-12-04 20:36:00,48.7,39.4,29.97,South,180,0.0,0.0,70,0.00,,,0.00,meteohub,2013-12-05 04:36:00,
2013-12-04 20:41:00,48.7,39.7,29.97,South,180,0.0,0.0,71,0.00,,,0.00,meteohub,2013-12-05 04:41:00,
2013-12-04 20:46:00,48.6,39.6,29.97,South,180,0.0,0.0,71,0.00,,,0.00,meteohub,2013-12-05 04:46:00,
2013-12-04 20:51:00,48.4,39.4,29.97,South,180,0.0,0.0,71,0.00,,,0.00,meteohub,2013-12-05 04:51:00,
2013-12-04 20:56:00,48.2,39.9,29.97,South,180,2.0,0.0,73,0.00,,,0.00,meteohub,2013-12-05 04:56:00,
2013-12-04 21:01:00,48.6,40.6,29.98,South,180,2.0,3.0,74,0.00,,,0.00,meteohub,2013-12-05 05:01:00,
2013-12-04 21:02:00,48.6,40.6,29.97,South,180,2.0,3.0,74,0.00,,,0.00,meteohub,2013-12-05 05:02:00,
2013-12-04 21:03:00,48.7,40.5,29.97,South,180,2.0,3.0,73,0.00,,,0.00,meteohub,2013-12-05 05:03:00,
2013-12-04 21:08:00,48.9,40.3,29.97,South,180,2.0,3.0,72,0.00,,,0.00,meteohub,2013-12-05 05:08:00,
2013-12-04 21:13:00,48.9,40.3,29.97,South,180,2.0,3.0,72,0.00,,,0.00,meteohub,2013-12-05 05:13:00,
2013-12-04 21:18:00,48.9,40.3,29.97,South,180,2.0,2.0,72,0.00,,,0.00,meteohub,2013-12-05 05:18:00,
2013-12-04 21:23:00,48.9,40.3,29.97,South,180,2.0,3.0,72,0.00,,,0.00,meteohub,2013-12-05 05:23:00,
2013-12-04 21:28:00,49.3,40.3,29.98,South,180,3.0,3.0,71,0.00,,,0.00,meteohub,2013-12-05 05:28:00,
2013-12-04 21:33:00,49.3,40.3,29.97,South,180,3.0,4.0,71,0.00,,,0.00,meteohub,2013-12-05 05:33:00,
2013-12-04 21:38:00,49.1,40.1,29.97,South,180,2.0,4.0,71,0.00,,,0.00,meteohub,2013-12-05 05:38:00,
2013-12-04 21:43:00,48.7,40.1,29.98,South,180,2.0,4.0,72,0.00,,,0.00,meteohub,2013-12-05 05:43:00,
2013-12-04 21:48:00,48.7,40.5,29.98,South,180,2.0,4.0,73,0.00,,,0.00,meteohub,2013-12-05 05:48:00,
2013-12-04 21:53:00,48.6,40.6,29.98,South,180,3.0,4.0,74,0.00,,,0.00,meteohub,2013-12-05 05:53:00,
2013-12-04 21:58:00,48.4,40.8,29.98,South,180,4.0,4.0,75,0.00,,,0.00,meteohub,2013-12-05 05:58:00,
2013-12-04 22:03:00,48.6,41.4,29.98,South,180,4.0,4.0,76,0.00,,,0.00,meteohub,2013-12-05 06:03:00,
2013-12-04 22:08:00,48.7,41.2,29.98,South,180,4.0,4.0,75,0.00,,,0.00,meteohub,2013-12-05 06:08:00,
2013-12-04 22:13:00,48.7,41.2,29.98,South,180,3.0,4.0,75,0.00,,,0.00,meteohub,2013-12-05 06:13:00,
2013-12-04 22:18:00,48.7,41.2,29.98,South,180,2.0,4.0,75,0.00,,,0.00,meteohub,2013-12-05 06:18:00,
2013-12-04 22:23:00,48.6,41.4,29.98,SSE,158,4.0,4.0,76,0.00,,,0.00,meteohub,2013-12-05 06:23:00,
2013-12-04 22:28:00,48.4,41.2,29.97,South,180,3.0,4.0,76,0.00,,,0.00,meteohub,2013-12-05 06:28:00,
2013-12-04 22:33:00,48.4,41.5,29.98,South,180,4.0,4.0,77,0.00,,,0.00,meteohub,2013-12-05 06:33:00,
2013-12-04 22:38:00,48.4,41.5,29.98,South,180,3.0,4.0,77,0.00,,,0.00,meteohub,2013-12-05 06:38:00,
2013-12-04 22:43:00,48.2,41.4,29.98,South,180,4.0,4.0,77,0.00,,,0.00,meteohub,2013-12-05 06:43:00,
2013-12-04 22:48:00,48.4,41.5,29.97,South,180,3.0,4.0,77,0.00,,,0.00,meteohub,2013-12-05 06:48:00,
2013-12-04 22:53:00,48.4,41.5,29.97,South,180,4.0,4.0,77,0.00,,,0.00,meteohub,2013-12-05 06:53:00,
2013-12-04 22:58:00,48.6,41.4,29.98,South,180,8.0,8.0,76,0.00,,,0.00,meteohub,2013-12-05 06:58:00,
2013-12-04 23:03:00,48.7,41.5,29.97,South,180,4.0,6.0,76,0.00,,,0.00,meteohub,2013-12-05 07:03:00,
2013-12-04 23:08:00,48.7,41.2,29.97,SSE,158,5.0,8.0,75,0.00,,,0.00,meteohub,2013-12-05 07:08:00,
2013-12-04 23:13:00,48.7,41.2,29.97,South,180,4.0,8.0,75,0.00,,,0.00,meteohub,2013-12-05 07:13:00,
2013-12-04 23:18:00,48.7,41.2,29.97,South,180,4.0,8.0,75,0.00,,,0.00,meteohub,2013-12-05 07:18:00,
2013-12-04 23:23:00,48.7,41.2,29.97,South,180,4.0,8.0,75,0.00,,,0.00,meteohub,2013-12-05 07:23:00,
2013-12-04 23:28:00,48.9,41.4,29.98,South,180,4.0,8.0,75,0.00,,,0.00,meteohub,2013-12-05 07:28:00,
2013-12-04 23:33:00,49.1,41.2,29.98,South,180,4.0,5.0,74,0.00,,,0.00,meteohub,2013-12-05 07:33:00,
2013-12-04 23:38:00,49.3,41.4,29.97,South,180,2.0,8.0,74,0.00,,,0.00,meteohub,2013-12-05 07:38:00,
2013-12-04 23:43:00,49.3,41.4,29.98,South,180,4.0,8.0,74,0.00,,,0.00,meteohub,2013-12-05 07:43:00,
2013-12-04 23:48:00,49.3,41.4,29.97,SSE,158,5.0,8.0,74,0.00,,,0.00,meteohub,2013-12-05 07:48:00,
2013-12-04 23:53:00,49.3,41.4,29.98,WSW,248,3.0,5.0,74,0.00,,,0.00,meteohub,2013-12-05 07:53:00,
2013-12-04 23:58:00,49.5,41.5,29.97,South,180,5.0,6.0,74,0.00,,,0.00,meteohub,2013-12-05 07:58:00,